Time;durP1;ratioP1;P1;durP2;ratioP2;P2;SDS_P1;SDS_P2;PMS_P1;PMS_P2;Temp;Humidity;BMP_temperature;BMP_pressure;BME280_temperature;BME280_humidity;BME280_pressure;Samples;Min_cycle;Max_cycle;Signal;HPM_P1;HPM_P2
2022/03/15 00:02:08;;;;;;;12.70;6.53;;;6.40;99.90;;;;;;4992611;28;20445;-51
2022/03/15 00:04:34;;;;;;;14.15;7.05;;;6.40;99.90;;;;;;4991806;28;20403;-51
2022/03/15 00:06:59;;;;;;;14.27;6.30;;;6.50;99.90;;;;;;4992558;28;20598;-51
2022/03/15 00:09:25;;;;;;;10.17;5.30;;;6.40;99.90;;;;;;4991821;28;20410;-51
2022/03/15 00:11:54;;;;;;;13.73;6.10;;;6.50;99.90;;;;;;4992699;28;20383;-50
2022/03/15 00:14:20;;;;;;;14.07;6.30;;;8.40;99.90;;;;;;4991912;28;20788;-51
2022/03/15 00:16:46;;;;;;;13.70;6.95;;;6.30;99.90;;;;;;4992434;28;20382;-51
2022/03/15 00:19:12;;;;;;;17.40;7.00;;;6.40;99.90;;;;;;4992243;28;20884;-51
2022/03/15 00:21:38;;;;;;;17.23;6.70;;;6.60;99.90;;;;;;4991441;28;20473;-51
2022/03/15 00:24:07;;;;;;;14.43;6.57;;;7.50;99.90;;;;;;4974885;28;20562;-52
2022/03/15 00:26:33;;;;;;;11.70;6.70;;;6.80;99.90;;;;;;4991402;28;20410;-51
2022/03/15 00:28:59;;;;;;;14.85;6.70;;;6.70;99.90;;;;;;4991836;28;20407;-50
2022/03/15 00:31:24;;;;;;;14.50;6.60;;;6.60;99.90;;;;;;4991088;28;20389;-51
2022/03/15 00:33:50;;;;;;;13.63;6.40;;;6.70;99.90;;;;;;4992102;28;20456;-51
2022/03/15 00:36:16;;;;;;;14.02;6.60;;;6.70;99.90;;;;;;4991370;28;20545;-53
2022/03/15 00:38:42;;;;;;;14.15;6.57;;;6.70;99.90;;;;;;4991954;28;20708;-51
2022/03/15 00:41:10;;;;;;;13.47;6.30;;;6.70;99.90;;;;;;4991795;28;20387;-50
2022/03/15 00:43:36;;;;;;;18.35;7.20;;;6.80;99.90;;;;;;4990512;28;20903;-50
2022/03/15 00:46:02;;;;;;;14.00;6.87;;;6.90;99.90;;;;;;4991770;28;20392;-51
2022/03/15 00:48:27;;;;;;;11.90;5.90;;;7.00;99.90;;;;;;4991232;28;20859;-50
2022/03/15 00:50:53;;;;;;;14.02;6.10;;;7.00;99.90;;;;;;4991619;28;20387;-51
2022/03/15 00:53:19;;;;;;;11.27;5.88;;;7.00;99.90;;;;;;4991007;28;20738;-52
2022/03/15 00:55:45;;;;;;;12.43;6.10;;;6.90;99.90;;;;;;4991645;28;20736;-50
2022/03/15 00:58:12;;;;;;;12.13;6.35;;;6.70;99.90;;;;;;4990917;28;20716;-51
2022/03/15 01:00:37;;;;;;;12.88;6.40;;;6.60;99.90;;;;;;4990717;28;20406;-50
2022/03/15 01:03:04;;;;;;;11.70;6.50;;;8.20;99.90;;;;;;4991193;28;20397;-51
2022/03/15 01:05:30;;;;;;;14.27;5.82;;;6.40;99.90;;;;;;4990597;28;20469;-51
2022/03/15 01:07:56;;;;;;;14.77;6.50;;;6.40;99.90;;;;;;4991422;28;20402;-51
2022/03/15 01:10:22;;;;;;;11.15;6.15;;;6.50;99.90;;;;;;4990479;28;20485;-51
2022/03/15 01:12:48;;;;;;;15.20;6.70;;;6.50;99.90;;;;;;4991229;28;20482;-51
2022/03/15 01:15:14;;;;;;;10.65;6.45;;;6.60;99.90;;;;;;4990631;28;20430;-52
2022/03/15 01:17:40;;;;;;;13.00;6.80;;;6.80;99.90;;;;;;4990424;28;20379;-51
2022/03/15 01:20:08;;;;;;;12.00;6.20;;;6.90;99.90;;;;;;4990569;28;20391;-51
2022/03/15 01:22:33;;;;;;;10.82;5.90;;;6.90;99.90;;;;;;4990336;28;20390;-51
2022/03/15 01:24:59;;;;;;;11.82;6.60;;;6.80;99.90;;;;;;4990662;28;20497;-50
2022/03/15 01:27:25;;;;;;;14.90;6.73;;;6.60;99.90;;;;;;4989430;28;20409;-51
2022/03/15 01:29:50;;;;;;;12.45;6.80;;;6.50;99.90;;;;;;4990600;28;20477;-51
2022/03/15 01:32:16;;;;;;;15.70;6.40;;;6.50;99.90;;;;;;4990103;28;20844;-53
2022/03/15 01:34:42;;;;;;;13.30;6.05;;;6.60;99.90;;;;;;4990265;28;20843;-51
2022/03/15 01:37:08;;;;;;;10.48;6.10;;;6.70;99.90;;;;;;4990404;28;20438;-51
2022/03/15 01:39:37;;;;;;;10.52;5.60;;;6.90;99.90;;;;;;4989261;28;21011;-51
2022/03/15 01:42:04;;;;;;;10.05;6.00;;;7.00;99.90;;;;;;4989960;28;20895;-51
2022/03/15 01:44:33;;;;;;;10.30;6.03;;;7.10;99.90;;;;;;4989344;28;20764;-51
2022/03/15 01:46:59;;;;;;;12.65;6.40;;;7.20;99.90;;;;;;4990017;28;20490;-50
2022/03/15 01:49:25;;;;;;;10.10;6.15;;;7.10;99.90;;;;;;4988981;28;20744;-51
2022/03/15 01:51:51;;;;;;;11.77;6.05;;;7.60;99.90;;;;;;4972461;28;20701;-52
2022/03/15 01:54:20;;;;;;;11.10;6.10;;;8.20;99.90;;;;;;4988523;28;20390;-52
2022/03/15 01:56:46;;;;;;;11.88;5.90;;;6.60;99.90;;;;;;4989785;28;20391;-51
2022/03/15 01:59:13;;;;;;;11.38;6.07;;;6.60;99.90;;;;;;4989456;28;20414;-51
2022/03/15 02:01:41;;;;;;;12.55;6.35;;;8.70;99.90;;;;;;4989223;28;20401;-51
2022/03/15 02:04:11;;;;;;;10.03;6.07;;;6.90;99.90;;;;;;4989968;28;20422;-51
2022/03/15 02:06:38;;;;;;;12.18;5.90;;;6.90;99.90;;;;;;4989328;28;20860;-51
2022/03/15 02:09:11;;;;;;;13.27;5.80;;;7.10;99.90;;;;;;4990307;28;20414;-50
2022/03/15 02:11:37;;;;;;;17.95;6.30;;;7.10;99.90;;;;;;4989074;28;20387;-50
2022/03/15 02:14:04;;;;;;;12.18;6.30;;;6.90;99.90;;;;;;4989810;28;20382;-50
2022/03/15 02:16:30;;;;;;;11.50;5.70;;;6.70;99.90;;;;;;4988993;28;20391;-50
2022/03/15 02:18:57;;;;;;;10.40;5.50;;;6.60;99.90;;;;;;4989767;28;20382;-50
2022/03/15 02:21:23;;;;;;;12.90;5.93;;;6.70;99.90;;;;;;4988875;28;20382;-50
2022/03/15 02:23:49;;;;;;;11.32;6.70;;;6.70;99.90;;;;;;4989595;28;20418;-50
2022/03/15 02:26:16;;;;;;;14.77;7.22;;;6.80;99.90;;;;;;4989747;28;20466;-53
2022/03/15 02:28:43;;;;;;;13.90;7.03;;;7.10;99.90;;;;;;4988940;28;20386;-50
2022/03/15 02:31:09;;;;;;;11.57;7.32;;;6.30;99.90;;;;;;4989687;28;20871;-51
2022/03/15 02:33:35;;;;;;;15.23;7.60;;;6.30;99.90;;;;;;4988458;28;20393;-51
2022/03/15 02:36:01;;;;;;;12.05;6.60;;;6.40;99.90;;;;;;4989235;28;20800;-51
2022/03/15 02:38:26;;;;;;;11.90;6.20;;;6.30;99.90;;;;;;4988494;28;20397;-51
2022/03/15 02:40:52;;;;;;;13.10;6.33;;;6.30;99.90;;;;;;4988921;28;20382;-51
2022/03/15 02:43:18;;;;;;;13.07;6.85;;;7.50;99.90;;;;;;4988450;28;20379;-53
2022/03/15 02:45:44;;;;;;;10.25;6.03;;;6.40;99.90;;;;;;4988775;28;20759;-50
2022/03/15 02:48:10;;;;;;;10.95;6.50;;;6.50;99.90;;;;;;4988956;28;20408;-51
2022/03/15 02:50:35;;;;;;;11.47;6.53;;;6.50;99.90;;;;;;4988012;28;20995;-51
2022/03/15 02:53:01;;;;;;;12.95;6.40;;;6.30;99.90;;;;;;4989191;28;20875;-51
2022/03/15 02:55:27;;;;;;;12.00;6.60;;;6.40;99.90;;;;;;4988165;28;20413;-51
2022/03/15 02:57:53;;;;;;;12.77;6.40;;;6.50;99.90;;;;;;4988523;28;20436;-51
2022/03/15 03:00:20;;;;;;;13.70;6.70;;;6.50;99.90;;;;;;4988084;28;20420;-52
2022/03/15 03:02:46;;;;;;;14.40;7.20;;;7.20;99.90;;;;;;4989302;28;20390;-50
2022/03/15 03:05:11;;;;;;;14.75;6.68;;;6.40;99.90;;;;;;4988950;28;20411;-50
2022/03/15 03:07:38;;;;;;;13.63;7.40;;;6.50;99.90;;;;;;4988619;28;20472;-51
2022/03/15 03:10:05;;;;;;;15.38;7.28;;;6.40;99.90;;;;;;4989097;28;20421;-51
2022/03/15 03:12:31;;;;;;;12.30;7.00;;;6.20;99.90;;;;;;4988276;28;20382;-51
2022/03/15 03:14:57;;;;;;;14.57;7.60;;;6.20;99.90;;;;;;4989278;28;20390;-50
2022/03/15 03:17:24;;;;;;;14.27;7.28;;;7.70;99.90;;;;;;4988215;28;20426;-50
2022/03/15 03:19:50;;;;;;;13.15;6.70;;;6.30;99.90;;;;;;4988835;28;20390;-50
2022/03/15 03:22:16;;;;;;;11.33;6.67;;;6.40;99.90;;;;;;4989226;28;20382;-50
2022/03/15 03:24:42;;;;;;;16.52;7.45;;;6.50;99.90;;;;;;4970639;28;20725;-50
2022/03/15 03:27:13;;;;;;;14.70;6.90;;;6.50;99.90;;;;;;4988783;28;20900;-50
2022/03/15 03:29:38;;;;;;;12.65;6.90;;;6.70;99.90;;;;;;4970820;28;20865;-50
2022/03/15 03:32:05;;;;;;;14.20;7.30;;;6.70;99.90;;;;;;4988937;28;20395;-50
2022/03/15 03:34:30;;;;;;;13.95;7.10;;;6.70;99.90;;;;;;4988180;28;20533;-51
2022/03/15 03:36:56;;;;;;;13.47;8.00;;;6.70;99.90;;;;;;4989078;28;20473;-51
2022/03/15 03:39:21;;;;;;;12.23;7.20;;;6.60;99.90;;;;;;4988005;28;20379;-51
2022/03/15 03:41:47;;;;;;;13.50;7.90;;;6.80;99.90;;;;;;4971117;28;20409;-50
2022/03/15 03:44:13;;;;;;;12.40;7.40;;;6.70;99.90;;;;;;4989057;28;20549;-50
2022/03/15 03:46:38;;;;;;;12.75;7.00;;;6.80;99.90;;;;;;4988010;28;21030;-51
2022/03/15 03:49:04;;;;;;;13.43;7.50;;;6.80;99.90;;;;;;4988633;28;20386;-51
2022/03/15 03:51:30;;;;;;;16.20;7.30;;;6.70;99.90;;;;;;4988192;28;20425;-51
2022/03/15 03:53:55;;;;;;;12.00;7.23;;;6.70;99.90;;;;;;4988275;28;20823;-51
2022/03/15 03:56:21;;;;;;;14.80;6.80;;;6.90;99.90;;;;;;4987651;28;20382;-53
2022/03/15 03:58:47;;;;;;;13.73;7.10;;;6.90;99.90;;;;;;4988271;28;20895;-51
2022/03/15 04:01:12;;;;;;;12.32;7.00;;;6.80;99.90;;;;;;4988782;28;20787;-51
2022/03/15 04:03:38;;;;;;;13.80;7.30;;;6.80;99.90;;;;;;4988100;28;20382;-50
2022/03/15 04:06:05;;;;;;;13.32;6.85;;;6.70;99.90;;;;;;4988440;28;20706;-50
2022/03/15 04:08:34;;;;;;;15.93;7.07;;;6.70;99.90;;;;;;4988187;28;20382;-51
2022/03/15 04:10:59;;;;;;;11.27;6.97;;;6.60;99.90;;;;;;4988632;28;20395;-51
2022/03/15 04:13:25;;;;;;;14.50;7.20;;;6.50;99.90;;;;;;4987936;28;20563;-51
2022/03/15 04:15:51;;;;;;;13.43;7.15;;;6.50;99.90;;;;;;4988829;28;20390;-50
2022/03/15 04:18:17;;;;;;;14.43;6.90;;;6.60;99.90;;;;;;4990982;28;20402;-52
2022/03/15 04:20:42;;;;;;;13.15;6.70;;;6.70;99.90;;;;;;4991761;28;20851;-50
2022/03/15 04:23:10;;;;;;;15.23;7.07;;;6.60;99.90;;;;;;4992128;28;20755;-50
2022/03/15 04:25:36;;;;;;;20.27;7.40;;;6.90;99.90;;;;;;4991252;28;20509;-51
2022/03/15 04:28:02;;;;;;;13.90;6.80;;;6.20;99.90;;;;;;4992280;28;20396;-50
2022/03/15 04:30:28;;;;;;;12.75;7.40;;;6.30;99.90;;;;;;4975626;28;20413;-50
2022/03/15 04:32:54;;;;;;;12.60;6.30;;;6.40;99.90;;;;;;5002099;28;20709;-51
2022/03/15 04:35:20;;;;;;;15.98;6.90;;;6.50;99.90;;;;;;5010922;28;20408;-52
2022/03/15 04:37:46;;;;;;;13.60;6.95;;;6.60;99.90;;;;;;5010699;28;20774;-50
2022/03/15 04:40:12;;;;;;;14.25;6.95;;;6.40;99.90;;;;;;5008565;28;20404;-49
2022/03/15 04:42:38;;;;;;;12.90;7.20;;;6.30;99.90;;;;;;5010425;28;20700;-51
2022/03/15 04:45:05;;;;;;;13.35;7.07;;;6.40;99.90;;;;;;5010919;28;20978;-51
2022/03/15 04:47:31;;;;;;;12.50;6.70;;;6.30;99.90;;;;;;5009852;28;20389;-50
2022/03/15 04:49:57;;;;;;;10.90;6.30;;;6.30;99.90;;;;;;5010944;28;20884;-50
2022/03/15 04:52:22;;;;;;;12.67;6.40;;;6.40;99.90;;;;;;5010224;28;20856;-52
2022/03/15 04:54:48;;;;;;;15.57;7.00;;;6.50;99.90;;;;;;5010870;28;20396;-51
2022/03/15 04:57:13;;;;;;;13.67;7.07;;;6.50;99.90;;;;;;5010911;28;20397;-51
2022/03/15 04:59:39;;;;;;;11.32;6.38;;;6.50;99.90;;;;;;5010078;28;20571;-51
2022/03/15 05:02:05;;;;;;;13.15;6.78;;;6.60;99.90;;;;;;5010971;28;20866;-50
2022/03/15 05:04:31;;;;;;;14.20;6.80;;;6.70;99.90;;;;;;5009201;28;20898;-50
2022/03/15 05:06:56;;;;;;;14.05;7.47;;;6.70;99.90;;;;;;5010404;28;20397;-50
2022/03/15 05:09:22;;;;;;;13.70;6.50;;;6.80;99.90;;;;;;5009744;28;20381;-52
2022/03/15 05:11:47;;;;;;;12.13;6.65;;;6.70;99.90;;;;;;5010241;28;20420;-50
2022/03/15 05:14:13;;;;;;;13.87;7.13;;;6.70;99.90;;;;;;5005327;28;20487;-50
2022/03/15 05:16:39;;;;;;;10.00;6.32;;;6.70;99.90;;;;;;4991156;28;20404;-50
2022/03/15 05:19:05;;;;;;;12.50;6.70;;;6.60;99.90;;;;;;5010857;28;20460;-51
2022/03/15 05:21:31;;;;;;;11.30;6.32;;;8.70;99.90;;;;;;5010203;28;20909;-51
2022/03/15 05:23:57;;;;;;;16.65;6.97;;;6.80;99.90;;;;;;5010520;28;20498;-51
2022/03/15 05:26:23;;;;;;;13.93;6.30;;;6.80;99.90;;;;;;5009490;28;20385;-51
2022/03/15 05:28:49;;;;;;;14.60;6.33;;;6.90;99.90;;;;;;5009279;28;20876;-51
2022/03/15 05:31:19;;;;;;;11.90;6.37;;;6.80;99.90;;;;;;5010393;28;20419;-51
2022/03/15 05:33:46;;;;;;;11.23;5.78;;;6.60;99.90;;;;;;5010170;28;20470;-51
2022/03/15 05:36:13;;;;;;;15.10;6.40;;;6.60;99.90;;;;;;5010344;28;20491;-50
2022/03/15 05:38:39;;;;;;;14.52;7.00;;;6.70;99.90;;;;;;5009603;28;20388;-50
2022/03/15 05:41:07;;;;;;;10.90;6.28;;;6.70;99.90;;;;;;5010558;28;20385;-50
2022/03/15 05:43:33;;;;;;;14.68;6.40;;;6.80;99.90;;;;;;5008234;28;20384;-51
2022/03/15 05:45:59;;;;;;;13.13;6.55;;;6.90;99.90;;;;;;5010318;28;20428;-51
2022/03/15 05:48:25;;;;;;;14.88;7.00;;;6.90;99.90;;;;;;5004812;28;20428;-52
2022/03/15 05:50:50;;;;;;;11.47;6.10;;;6.90;99.90;;;;;;5000062;28;20412;-51
2022/03/15 05:53:16;;;;;;;17.00;6.25;;;7.00;99.90;;;;;;4991008;28;20400;-51
2022/03/15 05:55:42;;;;;;;11.23;6.43;;;6.90;99.90;;;;;;5005399;28;20480;-51
2022/03/15 05:58:08;;;;;;;14.07;6.35;;;6.90;99.90;;;;;;5009461;28;20428;-50
2022/03/15 06:00:34;;;;;;;14.97;6.50;;;6.90;99.90;;;;;;4999436;28;20446;-51
2022/03/15 06:03:00;;;;;;;14.07;6.40;;;6.70;99.90;;;;;;5002885;28;20420;-50
2022/03/15 06:05:25;;;;;;;12.45;5.97;;;6.70;99.90;;;;;;4993199;28;20417;-51
2022/03/15 06:07:53;;;;;;;9.70;5.70;;;6.60;99.90;;;;;;5003739;28;20475;-51
2022/03/15 06:10:21;;;;;;;11.05;5.60;;;6.60;99.90;;;;;;5005989;28;20413;-51
2022/03/15 06:12:48;;;;;;;13.50;5.80;;;6.70;99.90;;;;;;5009032;28;20483;-51
2022/03/15 06:15:14;;;;;;;12.73;5.63;;;6.70;99.90;;;;;;5006677;28;20404;-51
2022/03/15 06:17:57;;;;;;;11.40;6.00;;;6.70;99.90;;;;;;5008575;28;20377;-50
2022/03/15 06:20:24;;;;;;;14.25;6.15;;;6.90;99.90;;;;;;5004612;28;20484;-52
2022/03/15 06:22:50;;;;;;;13.30;5.60;;;6.90;99.90;;;;;;5009551;28;20994;-51
2022/03/15 06:25:16;;;;;;;12.57;6.57;;;7.10;99.90;;;;;;5009418;28;20454;-51
2022/03/15 06:27:43;;;;;;;10.93;5.90;;;7.20;99.90;;;;;;4991197;28;20520;-50
2022/03/15 06:30:12;;;;;;;13.07;6.23;;;7.40;99.90;;;;;;4975128;28;20512;-50
2022/03/15 06:32:38;;;;;;;13.40;6.97;;;7.40;99.90;;;;;;5002106;28;20481;-50
2022/03/15 06:35:07;;;;;;;17.37;6.83;;;7.90;99.90;;;;;;4989622;28;20440;-50
2022/03/15 06:37:45;;;;;;;15.80;7.57;;;7.50;99.90;;;;;;5008697;28;20408;-50
2022/03/15 06:40:15;;;;;;;18.48;7.10;;;7.50;99.90;;;;;;5008291;28;20394;-51
2022/03/15 06:42:41;;;;;;;13.00;7.25;;;7.70;99.90;;;;;;4991231;28;20958;-53
2022/03/15 06:45:09;;;;;;;13.85;6.53;;;7.90;99.90;;;;;;5009996;28;20408;-53
2022/03/15 06:47:35;;;;;;;11.60;6.53;;;7.90;99.90;;;;;;4991262;28;20765;-51
2022/03/15 06:50:03;;;;;;;19.58;6.50;;;8.00;99.90;;;;;;5009466;28;20537;-51
2022/03/15 06:52:29;;;;;;;18.60;7.50;;;8.10;99.90;;;;;;5008863;28;20850;-51
2022/03/15 06:54:55;;;;;;;15.53;7.40;;;8.20;99.90;;;;;;5009757;28;20385;-51
2022/03/15 06:57:21;;;;;;;14.93;7.45;;;8.20;99.90;;;;;;5009158;28;20469;-53
2022/03/15 06:59:47;;;;;;;13.77;7.07;;;7.50;99.90;;;;;;5008824;28;20528;-51
2022/03/15 07:02:13;;;;;;;15.15;8.10;;;8.30;99.90;;;;;;5009282;28;20790;-51
2022/03/15 07:04:40;;;;;;;16.90;7.82;;;8.50;99.90;;;;;;4985398;28;20865;-51
2022/03/15 07:07:06;;;;;;;16.08;8.50;;;8.50;99.90;;;;;;4991308;28;20432;-51
2022/03/15 07:09:32;;;;;;;23.35;9.10;;;8.50;99.90;;;;;;5009134;28;20911;-51
2022/03/15 07:11:58;;;;;;;17.17;8.52;;;9.90;99.90;;;;;;5008870;28;20385;-51
2022/03/15 07:14:23;;;;;;;16.60;8.90;;;8.60;99.90;;;;;;4998995;28;20890;-51
2022/03/15 07:16:49;;;;;;;17.52;8.70;;;8.70;99.90;;;;;;4989958;28;20394;-51
2022/03/15 07:19:15;;;;;;;16.63;8.93;;;8.80;99.90;;;;;;4990390;28;20393;-51
2022/03/15 07:21:40;;;;;;;19.20;9.20;;;8.70;99.90;;;;;;4988681;28;21003;-51
2022/03/15 07:24:06;;;;;;;18.57;9.47;;;8.70;99.90;;;;;;5008473;28;20400;-51
2022/03/15 07:26:32;;;;;;;19.38;8.90;;;8.70;99.90;;;;;;5008137;28;20807;-52
2022/03/15 07:28:58;;;;;;;19.08;8.90;;;8.80;99.90;;;;;;5009277;28;20393;-51
2022/03/15 07:31:24;;;;;;;21.90;10.40;;;8.90;99.90;;;;;;5008487;28;20694;-53
2022/03/15 07:33:50;;;;;;;19.83;9.03;;;8.60;99.90;;;;;;5009095;28;20391;-51
2022/03/15 07:36:18;;;;;;;17.30;8.33;;;8.50;99.90;;;;;;4991021;28;20871;-51
2022/03/15 07:38:44;;;;;;;17.08;8.60;;;8.50;99.90;;;;;;5008142;28;20433;-50
2022/03/15 07:41:09;;;;;;;22.13;9.85;;;8.60;99.90;;;;;;4989957;28;20436;-52
2022/03/15 07:43:35;;;;;;;18.43;8.80;;;8.60;99.90;;;;;;4988332;28;20425;-51
2022/03/15 07:46:01;;;;;;;20.40;9.07;;;8.60;99.90;;;;;;4989130;28;20418;-51
2022/03/15 07:48:26;;;;;;;21.00;9.57;;;8.60;99.90;;;;;;4988873;28;20418;-50
2022/03/15 07:50:52;;;;;;;18.63;8.87;;;8.70;99.90;;;;;;4989521;28;20410;-50
2022/03/15 07:53:19;;;;;;;17.55;9.82;;;8.70;99.90;;;;;;4991353;28;20408;-50
2022/03/15 07:55:44;;;;;;;19.17;9.50;;;8.80;99.90;;;;;;4992265;28;20444;-50
2022/03/15 07:58:10;;;;;;;17.57;8.43;;;8.90;99.90;;;;;;4992856;28;20387;-50
2022/03/15 08:00:36;;;;;;;19.40;9.52;;;8.90;99.90;;;;;;4991998;28;20843;-50
2022/03/15 08:03:01;;;;;;;16.20;8.63;;;9.00;99.90;;;;;;4993012;28;20387;-50
2022/03/15 08:05:28;;;;;;;15.50;9.00;;;9.10;99.90;;;;;;4975025;28;20817;-50
2022/03/15 08:07:55;;;;;;;16.60;9.65;;;9.20;99.90;;;;;;4992911;28;20421;-51
2022/03/15 08:10:21;;;;;;;18.80;9.25;;;9.20;99.90;;;;;;4992746;28;20387;-50
2022/03/15 08:12:48;;;;;;;17.17;9.40;;;9.30;99.90;;;;;;4992187;28;20471;-50
2022/03/15 08:15:13;;;;;;;19.63;9.65;;;9.50;99.90;;;;;;5011741;28;20388;-50
2022/03/15 08:17:41;;;;;;;17.03;9.00;;;9.60;99.90;;;;;;5011820;28;20389;-50
2022/03/15 08:20:08;;;;;;;17.97;8.50;;;9.60;99.90;;;;;;5012269;28;20381;-50
2022/03/15 08:22:34;;;;;;;17.27;8.50;;;9.50;99.90;;;;;;5011604;28;20454;-50
2022/03/15 08:25:02;;;;;;;14.50;8.70;;;9.30;99.90;;;;;;5012460;28;20408;-50
2022/03/15 08:27:30;;;;;;;14.83;8.50;;;9.40;99.90;;;;;;5011716;28;20451;-50
2022/03/15 08:29:55;;;;;;;18.50;8.63;;;9.50;99.90;;;;;;5012398;28;20412;-50
2022/03/15 08:32:21;;;;;;;19.80;8.90;;;9.70;99.90;;;;;;5012231;28;20381;-52
2022/03/15 08:34:46;;;;;;;16.42;8.82;;;10.00;99.90;;;;;;5011361;28;20715;-50
2022/03/15 08:37:13;;;;;;;16.57;7.80;;;10.20;99.90;;;;;;5011705;28;20819;-50
2022/03/15 08:39:39;;;;;;;15.98;8.70;;;10.40;99.90;;;;;;4993741;28;20393;-50
2022/03/15 08:42:05;;;;;;;17.00;9.43;;;10.60;99.90;;;;;;5011581;28;20384;-51
2022/03/15 08:44:30;;;;;;;18.25;7.97;;;10.80;99.90;;;;;;4993623;28;20412;-51
2022/03/15 08:46:56;;;;;;;20.20;8.60;;;10.90;99.90;;;;;;5011890;28;20865;-51
2022/03/15 08:49:22;;;;;;;18.17;8.50;;;11.70;99.90;;;;;;5011640;28;20392;-52
2022/03/15 08:51:49;;;;;;;19.77;8.10;;;10.90;99.90;;;;;;5011389;28;20729;-51
2022/03/15 08:54:15;;;;;;;15.48;8.10;;;10.80;99.90;;;;;;5011879;28;20772;-51
2022/03/15 08:56:41;;;;;;;16.13;7.60;;;11.00;99.90;;;;;;5011085;28;20383;-51
2022/03/15 08:59:12;;;;;;;18.00;8.40;;;11.20;99.90;;;;;;5011497;28;20432;-51
2022/03/15 09:01:39;;;;;;;16.50;8.63;;;11.30;99.90;;;;;;5011057;28;20789;-52
2022/03/15 09:04:05;;;;;;;18.75;9.10;;;11.40;99.90;;;;;;5010982;28;20889;-51
2022/03/15 09:06:31;;;;;;;14.80;8.10;;;11.50;99.90;;;;;;5010498;28;20399;-51
2022/03/15 09:08:59;;;;;;;16.75;8.95;;;11.60;99.90;;;;;;5011441;28;20395;-51
2022/03/15 09:11:25;;;;;;;14.18;7.68;;;11.70;99.90;;;;;;5010851;28;20826;-53
2022/03/15 09:13:51;;;;;;;18.05;8.02;;;11.70;99.90;;;;;;5003234;28;20410;-51
2022/03/15 09:16:16;;;;;;;19.77;8.20;;;11.80;99.90;;;;;;4991817;28;20393;-51
2022/03/15 09:18:43;;;;;;;15.95;7.25;;;11.70;99.90;;;;;;4991399;28;20983;-51
2022/03/15 09:21:09;;;;;;;13.82;7.82;;;11.50;99.90;;;;;;4991757;28;20386;-52
2022/03/15 09:23:35;;;;;;;15.23;7.20;;;11.60;99.90;;;;;;4990637;28;20383;-52
2022/03/15 09:26:01;;;;;;;13.82;6.65;;;11.70;99.90;;;;;;4973573;28;20419;-51
2022/03/15 09:28:26;;;;;;;12.10;4.83;;;11.70;99.90;;;;;;4990631;28;20415;-53
2022/03/15 09:30:52;;;;;;;12.43;4.30;;;11.70;99.90;;;;;;4991772;28;20408;-53
2022/03/15 09:33:19;;;;;;;9.07;4.23;;;11.50;99.90;;;;;;4991722;28;20394;-51
2022/03/15 09:35:45;;;;;;;12.70;4.10;;;11.30;99.90;;;;;;4990800;28;20491;-51
2022/03/15 09:38:11;;;;;;;12.98;4.30;;;11.20;99.90;;;;;;4990780;28;20399;-53
2022/03/15 09:40:38;;;;;;;11.25;3.75;;;11.30;99.90;;;;;;4990824;28;20918;-51
2022/03/15 09:43:06;;;;;;;13.20;4.13;;;11.50;99.90;;;;;;4991103;28;20391;-56
2022/03/15 09:45:34;;;;;;;8.75;4.47;;;11.60;99.90;;;;;;4989905;28;20493;-52
2022/03/15 09:48:04;;;;;;;12.07;4.53;;;11.70;99.90;;;;;;4991218;28;20415;-51
2022/03/15 09:50:30;;;;;;;10.88;4.50;;;11.80;99.90;;;;;;4990393;28;20390;-51
2022/03/15 09:52:58;;;;;;;15.30;4.68;;;11.70;99.90;;;;;;4990872;28;20410;-51
2022/03/15 09:55:25;;;;;;;9.25;4.60;;;11.80;99.90;;;;;;4991104;28;20397;-53
2022/03/15 09:57:51;;;;;;;10.70;5.10;;;11.80;99.90;;;;;;4990653;28;20449;-51
2022/03/15 10:00:17;;;;;;;9.75;3.53;;;11.90;99.90;;;;;;4991194;28;20483;-51
2022/03/15 10:02:44;;;;;;;9.82;3.15;;;11.70;99.90;;;;;;4990288;28;20390;-52
2022/03/15 10:05:11;;;;;;;7.57;3.40;;;11.50;99.90;;;;;;4990591;28;20418;-51
2022/03/15 10:07:38;;;;;;;9.27;3.10;;;11.50;99.90;;;;;;4990029;28;20401;-51
2022/03/15 10:10:10;;;;;;;9.63;3.05;;;11.50;99.90;;;;;;4991220;28;20382;-50
2022/03/15 10:12:36;;;;;;;8.15;3.17;;;13.30;99.90;;;;;;4989773;28;20887;-51
2022/03/15 10:15:12;;;;;;;10.15;3.60;;;11.30;99.90;;;;;;5006729;28;20495;-50
2022/03/15 10:18:25;;;;;;;11.17;3.37;;;11.30;99.90;;;;;;5009548;28;20434;-50
2022/03/15 10:20:44;;;;;;;7.97;3.40;;;11.40;99.90;;;;;;5005266;28;20389;-51
2022/03/15 10:23:10;;;;;;;10.40;3.67;;;11.50;99.90;;;;;;5009761;28;20385;-51
2022/03/15 10:25:37;;;;;;;10.05;3.42;;;11.60;99.90;;;;;;5008809;28;20758;-51
2022/03/15 10:28:05;;;;;;;8.02;3.58;;;11.70;99.90;;;;;;5009242;28;20874;-51
2022/03/15 10:30:31;;;;;;;8.30;3.40;;;11.70;99.90;;;;;;5008574;28;20404;-51
2022/03/15 10:32:58;;;;;;;8.70;3.67;;;11.80;99.90;;;;;;5010026;28;20412;-51
2022/03/15 10:35:26;;;;;;;8.35;3.70;;;11.80;99.90;;;;;;5009145;28;20380;-54
2022/03/15 10:37:53;;;;;;;8.07;3.58;;;11.80;99.90;;;;;;5009303;28;20392;-51
2022/03/15 10:40:40;;;;;;;8.52;3.70;;;11.80;99.90;;;;;;5009239;28;20389;-51
2022/03/15 10:43:16;;;;;;;10.02;3.80;;;11.80;99.90;;;;;;5009302;28;20520;-51
2022/03/15 10:45:47;;;;;;;7.90;4.20;;;11.90;99.90;;;;;;5008873;28;20428;-51
2022/03/15 10:48:24;;;;;;;8.30;3.80;;;11.80;99.90;;;;;;5008975;28;20395;-52
2022/03/15 10:51:00;;;;;;;8.80;3.72;;;11.80;99.90;;;;;;5008293;28;20409;-51
2022/03/15 10:53:36;;;;;;;10.17;4.20;;;11.90;99.90;;;;;;5008903;28;20369;-53
2022/03/15 10:56:11;;;;;;;9.45;4.22;;;11.80;99.90;;;;;;5008644;28;20479;-51
2022/03/15 10:58:44;;;;;;;9.18;4.30;;;11.80;99.90;;;;;;5007905;28;20408;-50
2022/03/15 11:01:10;;;;;;;14.70;5.00;;;11.70;99.90;;;;;;5008782;28;20457;-50
2022/03/15 11:03:35;;;;;;;9.25;3.90;;;11.80;99.90;;;;;;5008219;28;20467;-50
2022/03/15 11:06:08;;;;;;;10.55;4.22;;;11.70;99.90;;;;;;5008880;28;20416;-51
2022/03/15 11:08:36;;;;;;;10.80;3.97;;;11.70;99.90;;;;;;4990547;28;20397;-51
2022/03/15 11:11:05;;;;;;;10.27;4.10;;;11.70;99.90;;;;;;5008410;28;20476;-51
2022/03/15 11:13:32;;;;;;;12.82;4.60;;;11.90;99.90;;;;;;5003066;28;20402;-51
2022/03/15 11:15:59;;;;;;;9.88;3.97;;;12.10;99.90;;;;;;4988839;28;20394;-50
2022/03/15 11:18:30;;;;;;;8.52;3.90;;;12.10;99.90;;;;;;4988718;28;20382;-50
2022/03/15 11:20:58;;;;;;;10.48;4.50;;;11.90;99.90;;;;;;4989186;28;20398;-51
2022/03/15 11:23:25;;;;;;;9.77;4.70;;;11.70;99.90;;;;;;4988380;28;20863;-50
2022/03/15 11:26:06;;;;;;;10.57;5.00;;;11.40;99.90;;;;;;4988139;28;20434;-50
2022/03/15 11:28:36;;;;;;;9.70;4.20;;;11.20;99.90;;;;;;4994666;28;20732;-51
2022/03/15 11:31:02;;;;;;;9.10;4.55;;;11.10;99.90;;;;;;4995398;28;20394;-51
2022/03/15 11:33:29;;;;;;;10.27;6.13;;;10.90;99.90;;;;;;4994406;28;20804;-53
2022/03/15 11:35:55;;;;;;;14.82;7.10;;;10.90;99.90;;;;;;4995334;28;20497;-51
2022/03/15 11:38:21;;;;;;;11.60;6.68;;;10.70;99.90;;;;;;4995207;28;20469;-51
2022/03/15 11:40:54;;;;;;;11.73;6.88;;;10.60;99.90;;;;;;4994433;28;20451;-50
2022/03/15 11:44:09;;;;;;;16.17;7.83;;;10.50;99.90;;;;;;4995034;28;20389;-51
2022/03/15 11:46:43;;;;;;;15.93;7.70;;;10.40;99.90;;;;;;4995063;28;20591;-51
2022/03/15 11:49:24;;;;;;;13.93;7.60;;;10.40;99.90;;;;;;4995186;28;20424;-50
2022/03/15 11:52:08;;;;;;;15.70;7.70;;;10.40;99.90;;;;;;4994189;28;20370;-51
2022/03/15 11:55:02;;;;;;;12.53;7.00;;;10.40;99.90;;;;;;4994296;28;20436;-51
2022/03/15 11:57:30;;;;;;;14.07;7.13;;;10.30;99.90;;;;;;4994500;28;20834;-51
2022/03/15 11:59:56;;;;;;;15.38;8.25;;;10.30;99.90;;;;;;4995269;28;20418;-50
2022/03/15 12:02:28;;;;;;;16.13;7.50;;;10.40;99.90;;;;;;4994876;28;20394;-50
2022/03/15 12:04:54;;;;;;;15.18;8.15;;;10.50;99.90;;;;;;4994075;28;20414;-51
2022/03/15 12:07:45;;;;;;;14.60;8.15;;;10.50;99.90;;;;;;4994968;28;20728;-51
2022/03/15 12:10:11;;;;;;;18.27;8.68;;;10.50;99.90;;;;;;4995151;28;20426;-51
2022/03/15 12:12:40;;;;;;;15.30;8.60;;;10.50;99.90;;;;;;4994265;28;20418;-51
2022/03/15 12:15:15;;;;;;;14.50;8.60;;;10.70;99.90;;;;;;5012278;28;20488;-51
2022/03/15 12:17:42;;;;;;;13.63;8.55;;;10.70;99.90;;;;;;5013998;28;20380;-51
2022/03/15 12:20:18;;;;;;;15.95;8.70;;;10.70;99.90;;;;;;5014499;28;20846;-54
2022/03/15 12:22:47;;;;;;;14.65;7.90;;;10.70;99.90;;;;;;4996412;28;20397;-51
2022/03/15 12:25:15;;;;;;;11.20;6.68;;;10.60;99.90;;;;;;5014703;28;20533;-52
2022/03/15 12:27:46;;;;;;;13.20;7.30;;;10.60;99.90;;;;;;5013477;28;20403;-51
2022/03/15 12:30:16;;;;;;;15.15;7.78;;;10.50;99.90;;;;;;5014858;28;20447;-51
2022/03/15 12:32:53;;;;;;;15.32;7.75;;;10.60;99.90;;;;;;5014090;28;20385;-51
2022/03/15 12:35:27;;;;;;;12.85;8.13;;;10.50;99.90;;;;;;5014632;28;20442;-51
2022/03/15 12:38:13;;;;;;;15.07;8.57;;;10.60;99.90;;;;;;5013018;28;20850;-51
2022/03/15 12:40:42;;;;;;;15.20;8.10;;;10.60;99.90;;;;;;5010332;28;20396;-51
2022/03/15 12:43:08;;;;;;;16.60;7.53;;;10.50;99.90;;;;;;5010936;28;20503;-51
2022/03/15 12:45:46;;;;;;;16.00;8.80;;;10.50;99.90;;;;;;5010535;28;20512;-51
2022/03/15 12:48:12;;;;;;;16.13;8.13;;;10.60;99.90;;;;;;5010822;28;20877;-51